Time;durP1;ratioP1;P1;durP2;ratioP2;P2;SDS_P1;SDS_P2;PMS_P1;PMS_P2;Temp;Humidity;BMP_temperature;BMP_pressure;BME280_temperature;BME280_humidity;BME280_pressure;Samples;Min_cycle;Max_cycle;Signal;HPM_P1;HPM_P2
2022/05/04 00:02:48;;;;;;;;;5.50;5.25;;;;;15.32;69.60;101112.59;146614;587;46021;-68
2022/05/04 00:05:40;;;;;;;;;9.00;7.00;;;;;15.32;69.75;101112.59;146613;619;46012;-70
2022/05/04 00:08:32;;;;;;;;;7.50;6.25;;;;;15.25;69.91;101109.75;146615;603;46020;-68
2022/05/04 00:11:25;;;;;;;;;9.50;7.25;;;;;15.23;67.54;101124.50;146614;582;46016;-68
2022/05/04 00:14:16;;;;;;;;;7.00;6.75;;;;;15.15;67.78;101110.22;146616;614;46010;-67
2022/05/04 00:17:09;;;;;;;;;5.25;4.00;;;;;15.06;68.86;101111.59;146613;648;46017;-70
2022/05/04 00:20:01;;;;;;;;;6.75;6.75;;;;;14.98;69.68;101117.44;146615;576;47010;-70
2022/05/04 00:22:53;;;;;;;;;8.50;5.75;;;;;14.89;69.62;101111.84;146613;739;46033;-67
2022/05/04 00:25:45;;;;;;;;;5.00;4.50;;;;;14.87;69.55;101123.03;146614;719;46021;-67
2022/05/04 00:28:38;;;;;;;;;5.25;5.25;;;;;14.90;69.82;101128.37;146608;591;46016;-69
2022/05/04 00:31:30;;;;;;;;;6.00;6.00;;;;;14.93;70.64;101126.78;146616;719;46010;-69
2022/05/04 00:34:26;;;;;;;;;8.25;6.75;;;;;14.97;70.69;101120.84;146612;570;46912;-71
2022/05/04 00:37:40;;;;;;;;;6.75;6.75;;;;;14.96;69.11;101128.63;146637;572;45020;-68
2022/05/04 00:40:33;;;;;;;;;8.00;6.75;;;;;14.92;69.59;101131.94;146636;612;45019;-68
2022/05/04 00:43:27;;;;;;;;;6.00;6.00;;;;;14.89;70.17;101131.81;146634;587;45020;-68
2022/05/04 00:46:49;;;;;;;;;7.25;6.25;;;;;14.92;70.13;101158.97;146637;618;45013;-68
2022/05/04 00:49:42;;;;;;;;;7.75;5.25;;;;;14.94;71.17;101135.50;146637;597;45010;-68
2022/05/04 00:52:36;;;;;;;;;6.75;6.50;;;;;14.98;70.83;101138.31;146637;575;45016;-70
2022/05/04 00:55:28;;;;;;;;;7.00;6.25;;;;;15.01;71.00;101141.06;146636;571;45020;-70
2022/05/04 01:01:33;;;;;;;;;6.00;6.00;;;;;14.99;71.39;101133.97;146633;673;46011;-71
2022/05/04 01:04:25;;;;;;;;;5.00;5.00;;;;;14.96;71.93;101133.84;146633;596;46012;-70
2022/05/04 01:10:39;;;;;;;;;6.75;5.00;;;;;14.82;71.71;101142.84;146635;661;45012;-71
2022/05/04 01:13:31;;;;;;;;;6.00;6.00;;;;;14.77;71.59;101140.06;146634;658;45020;-70
2022/05/04 01:16:23;;;;;;;;;7.75;7.50;;;;;14.76;71.97;101140.88;146632;586;45017;-70
2022/05/04 01:19:16;;;;;;;;;7.00;6.00;;;;;14.77;72.40;101142.66;146631;573;45020;-70
2022/05/04 01:22:09;;;;;;;;;6.25;5.75;;;;;14.77;72.05;101133.09;146635;563;45021;-70
2022/05/04 01:25:01;;;;;;;;;7.50;6.50;;;;;14.78;72.69;101129.66;146640;682;44021;-68
2022/05/04 01:27:53;;;;;;;;;7.50;7.50;;;;;14.78;73.45;101141.81;146633;569;45016;-71
2022/05/04 01:30:45;;;;;;;;;7.50;6.00;;;;;14.77;72.97;101140.06;146634;603;45020;-70
2022/05/04 01:33:38;;;;;;;;;6.75;6.00;;;;;14.78;72.51;101145.31;146636;675;45012;-75
2022/05/04 01:36:30;;;;;;;;;9.25;7.75;;;;;14.79;72.60;101141.87;146620;563;45042;-78
2022/05/04 01:39:22;;;;;;;;;7.25;7.25;;;;;14.80;73.06;101132.34;146615;578;45578;-71
2022/05/04 01:42:15;;;;;;;;;9.00;7.00;;;;;14.78;72.83;101134.00;146616;595;46029;-73
2022/05/04 01:45:08;;;;;;;;;9.50;8.00;;;;;14.77;72.70;101127.00;146614;606;46012;-76
2022/05/04 01:48:00;;;;;;;;;8.00;7.00;;;;;14.81;73.17;101138.47;146614;570;46010;-76
2022/05/04 01:50:53;;;;;;;;;8.50;6.50;;;;;14.83;73.00;101136.78;146614;564;46016;-80
2022/05/04 01:53:45;;;;;;;;;7.00;7.00;;;;;14.84;73.02;101143.81;146617;675;46010;-71
2022/05/04 01:56:38;;;;;;;;;9.00;7.00;;;;;14.84;73.16;101142.06;146615;631;45037;-68
2022/05/04 01:59:30;;;;;;;;;6.00;5.50;;;;;14.85;73.01;101140.34;146617;718;45020;-71
2022/05/04 02:02:22;;;;;;;;;9.75;8.00;;;;;14.86;72.68;101142.13;146614;629;46016;-70
2022/05/04 02:05:14;;;;;;;;;9.25;7.25;;;;;14.88;72.91;101133.53;146613;571;46010;-71
2022/05/04 02:08:07;;;;;;;;;8.00;7.00;;;;;14.91;72.56;101138.00;146612;565;46015;-68
2022/05/04 02:10:59;;;;;;;;;7.25;6.75;;;;;14.91;72.86;101143.22;146616;569;45027;-68
2022/05/04 02:13:51;;;;;;;;;7.00;7.00;;;;;14.89;72.99;101143.16;146615;651;46915;-70
2022/05/04 02:16:43;;;;;;;;;7.00;7.00;;;;;14.89;72.93;101147.47;146616;637;46010;-69
2022/05/04 02:19:35;;;;;;;;;7.50;7.50;;;;;14.89;72.91;101150.09;146614;706;46016;-68
2022/05/04 02:22:27;;;;;;;;;8.00;7.00;;;;;14.88;73.13;101143.09;146610;725;46021;-67
2022/05/04 02:25:20;;;;;;;;;7.50;7.50;;;;;14.88;73.01;101141.38;146613;662;46012;-70
2022/05/04 02:28:11;;;;;;;;;8.25;6.50;;;;;14.88;73.02;101141.38;146616;624;46010;-69
2022/05/04 02:31:04;;;;;;;;;7.75;7.75;;;;;14.86;73.06;101136.91;146614;566;46016;-73
2022/05/04 02:33:56;;;;;;;;;4.00;3.75;;;;;14.84;73.09;101138.59;146616;578;46020;-70
2022/05/04 02:39:58;;;;;;;;;6.75;6.75;;;;;14.79;72.82;101143.59;146614;705;46020;-70
2022/05/04 02:42:50;;;;;;;;;8.25;7.25;;;;;14.78;73.32;101139.22;146613;648;46016;-67
2022/05/04 02:45:43;;;;;;;;;7.00;7.00;;;;;14.79;73.05;101141.87;146613;572;46020;-69
2022/05/04 02:48:35;;;;;;;;;6.75;5.25;;;;;14.78;72.63;101145.31;146609;563;46914;-69
2022/05/04 02:51:27;;;;;;;;;7.00;6.00;;;;;14.79;73.37;101152.31;146617;579;46010;-69
2022/05/04 02:54:19;;;;;;;;;9.25;8.75;;;;;14.79;73.09;101156.66;146615;593;46016;-73
2022/05/04 02:57:11;;;;;;;;;6.00;6.00;;;;;14.77;73.49;101156.59;146613;630;47010;-68
2022/05/04 03:00:03;;;;;;;;;10.00;7.75;;;;;14.77;73.41;101155.72;146611;592;46915;-68
2022/05/04 03:02:55;;;;;;;;;7.00;6.00;;;;;14.76;74.20;101165.25;146617;576;46020;-69
2022/05/04 03:05:47;;;;;;;;;6.25;6.25;;;;;14.71;73.84;101169.41;146611;570;46016;-68
2022/05/04 03:08:39;;;;;;;;;8.25;7.00;;;;;14.69;73.72;101168.44;146617;587;46021;-67
2022/05/04 03:14:43;;;;;;;;;9.25;7.00;;;;;14.71;74.00;101178.97;146609;641;46020;-69
2022/05/04 03:17:35;;;;;;;;;7.25;7.25;;;;;14.69;74.08;101178.88;146611;565;46014;-71
2022/05/04 03:20:27;;;;;;;;;8.50;8.50;;;;;14.69;74.22;101185.81;146617;649;46020;-67
2022/05/04 03:23:19;;;;;;;;;8.25;7.25;;;;;14.66;73.99;101181.34;146614;575;46013;-66
2022/05/04 03:26:14;;;;;;;;;8.00;7.25;;;;;14.68;73.74;101195.38;146613;573;46020;-72
2022/05/04 03:29:10;;;;;;;;;8.50;8.25;;;;;14.67;73.36;101190.06;146610;565;46016;-71
2022/05/04 03:32:03;;;;;;;;;7.00;7.00;;;;;14.68;73.78;101194.50;146615;569;46010;-69
2022/05/04 03:34:55;;;;;;;;;9.50;9.50;;;;;14.70;73.82;101200.66;146610;563;46016;-69
2022/05/04 03:37:47;;;;;;;;;10.50;9.00;;;;;14.69;73.46;101194.53;146611;566;46021;-70
2022/05/04 03:40:40;;;;;;;;;9.25;9.00;;;;;14.71;73.41;101199.84;146614;691;46012;-69
2022/05/04 03:43:32;;;;;;;;;12.75;10.50;;;;;14.72;73.24;101209.44;146614;631;46011;-69
2022/05/04 03:46:31;;;;;;;;;11.75;8.50;;;;;14.73;72.98;101212.09;146611;574;46012;-71
2022/05/04 03:49:25;;;;;;;;;8.50;7.00;;;;;14.76;73.34;101219.19;146614;566;46020;-71
2022/05/04 03:52:17;;;;;;;;;10.50;10.50;;;;;14.78;73.43;101223.63;146613;603;46014;-71
2022/05/04 03:55:10;;;;;;;;;11.75;9.75;;;;;14.82;73.15;101218.56;146610;564;46020;-68
2022/05/04 03:58:02;;;;;;;;;10.25;8.75;;;;;14.84;73.29;101224.75;146613;575;46016;-68
2022/05/04 04:00:54;;;;;;;;;10.25;9.75;;;;;13.84;73.17;101050.91;146616;619;45021;-69
2022/05/04 04:03:46;;;;;;;;;10.00;9.25;;;;;14.87;72.96;101228.38;146611;646;47012;-68
2022/05/04 04:06:39;;;;;;;;;10.00;10.00;;;;;14.92;73.05;101236.38;146617;581;46021;-68
2022/05/04 04:09:31;;;;;;;;;10.75;10.25;;;;;14.95;73.20;101232.19;146605;593;47014;-69
2022/05/04 04:12:23;;;;;;;;;12.25;8.75;;;;;14.07;72.95;101078.84;146609;594;46020;-71
2022/05/04 04:15:15;;;;;;;;;7.50;5.75;;;;;14.98;73.25;101226.19;146610;590;46017;-70
2022/05/04 04:18:07;;;;;;;;;9.00;9.00;;;;;14.99;73.57;101234.09;146613;586;46010;-69
2022/05/04 04:24:10;;;;;;;;;13.25;10.75;;;;;14.98;73.84;101228.78;146611;574;46020;-71
2022/05/04 04:27:02;;;;;;;;;10.25;10.25;;;;;14.99;73.77;101231.50;146604;582;46016;-78
2022/05/04 04:29:55;;;;;;;;;12.50;10.75;;;;;14.96;73.72;101235.69;146609;578;46021;-79
2022/05/04 04:32:47;;;;;;;;;11.50;9.75;;;;;14.96;73.74;101240.91;146607;612;46915;-72
2022/05/04 04:35:39;;;;;;;;;12.50;11.50;;;;;14.96;73.69;101243.53;146607;597;46020;-73
2022/05/04 04:38:32;;;;;;;;;11.25;9.75;;;;;14.97;73.90;101250.53;146613;576;47014;-73
2022/05/04 04:41:24;;;;;;;;;10.50;10.00;;;;;14.95;73.64;101250.47;146614;570;46010;-73
2022/05/04 04:44:16;;;;;;;;;13.25;13.25;;;;;14.97;73.29;101253.13;146609;595;47013;-71
2022/05/04 04:47:09;;;;;;;;;13.75;12.25;;;;;14.95;73.29;101253.09;146611;610;46020;-70
2022/05/04 04:50:02;;;;;;;;;12.50;10.00;;;;;14.98;73.30;101260.13;146607;625;46012;-70
2022/05/04 04:52:54;;;;;;;;;12.50;9.00;;;;;14.98;73.11;101263.66;146610;569;46010;-69
2022/05/04 04:55:47;;;;;;;;;10.00;9.25;;;;;14.99;73.14;101262.81;146612;577;46012;-68
2022/05/04 04:58:41;;;;;;;;;10.75;9.00;;;;;15.01;72.87;101262.88;146611;698;47010;-72
2022/05/04 05:01:39;;;;;;;;;31.25;26.00;;;;;15.01;73.07;101269.00;146605;577;46016;-78
2022/05/04 05:04:31;;;;;;;;;49.25;40.25;;;;;15.00;73.18;101269.81;146609;593;45032;-77
2022/05/04 05:07:28;;;;;;;;;37.00;31.00;;;;;14.99;72.48;101272.38;146605;571;46911;-75
2022/05/04 05:10:53;;;;;;;;;24.50;19.25;;;;;15.00;72.29;101284.59;146607;589;47010;-76
2022/05/04 05:17:19;;;;;;;;;11.75;10.75;;;;;15.00;72.27;101282.88;146608;570;46020;-76
2022/05/04 05:20:12;;;;;;;;;10.00;10.00;;;;;15.03;72.70;101289.97;146610;572;46016;-71
2022/05/04 05:23:06;;;;;;;;;8.00;8.00;;;;;15.09;72.35;101292.81;146613;657;46010;-75
2022/05/04 05:26:02;;;;;;;;;9.75;8.00;;;;;15.11;71.32;101295.47;146613;648;46034;-71
2022/05/04 05:28:57;;;;;;;;;9.50;8.75;;;;;15.15;71.46;101298.31;146612;587;46021;-67
2022/05/04 05:31:50;;;;;;;;;11.75;10.25;;;;;15.20;71.73;101293.25;146610;563;46012;-67
2022/05/04 05:34:45;;;;;;;;;21.25;20.50;;;;;15.27;71.65;101297.03;146606;594;46026;-68
2022/05/04 05:37:37;;;;;;;;;13.50;12.50;;;;;15.32;71.66;101303.31;146609;590;46012;-69
2022/05/04 05:40:30;;;;;;;;;12.25;12.00;;;;;15.38;71.51;101306.19;146608;650;46020;-68
2022/05/04 05:43:25;;;;;;;;;10.75;9.75;;;;;15.45;71.56;101308.22;146605;686;47013;-68
2022/05/04 05:46:17;;;;;;;;;9.00;8.25;;;;;15.53;70.84;101308.56;146613;638;47014;-66
2022/05/04 05:49:09;;;;;;;;;10.50;10.00;;;;;15.60;70.45;101308.84;146608;567;47012;-66
2022/05/04 05:52:02;;;;;;;;;10.00;9.75;;;;;15.66;70.56;101309.09;146614;569;46020;-67
2022/05/04 05:54:55;;;;;;;;;11.25;7.50;;;;;15.75;69.05;101311.22;146610;581;46016;-68
2022/05/04 05:57:47;;;;;;;;;7.75;7.75;;;;;15.81;68.79;101319.31;146614;574;46014;-67
2022/05/04 06:00:39;;;;;;;;;13.00;8.00;;;;;15.86;68.75;101309.03;146603;581;46016;-69
2022/05/04 06:03:32;;;;;;;;;10.00;8.50;;;;;15.94;68.50;101313.72;146616;574;46020;-69
2022/05/04 06:06:24;;;;;;;;;10.00;9.50;;;;;16.01;67.56;101316.56;146612;590;46014;-72
2022/05/04 06:09:16;;;;;;;;;10.25;9.25;;;;;16.05;67.51;101324.59;146613;590;46010;-74
2022/05/04 06:12:09;;;;;;;;;11.50;9.00;;;;;16.07;67.46;101330.78;146604;608;47913;-74
2022/05/04 06:15:28;;;;;;;;;11.25;10.50;;;;;16.07;67.22;101328.16;146611;566;46010;-72
2022/05/04 06:19:02;;;;;;;;;10.75;8.75;;;;;16.12;67.29;101330.97;146610;683;46016;-73
2022/05/04 06:21:53;;;;;;;;;8.75;8.00;;;;;16.10;66.59;101333.50;146608;600;47010;-72
2022/05/04 06:24:46;;;;;;;;;9.50;8.75;;;;;16.08;67.20;101329.97;146612;705;46016;-72
2022/05/04 06:27:39;;;;;;;;;10.25;10.00;;;;;16.09;66.69;101338.69;146610;593;46021;-70
2022/05/04 06:36:53;;;;;;;;;8.25;6.75;;;;;16.12;66.76;101346.66;146609;579;46016;-70
2022/05/04 06:39:46;;;;;;;;;7.50;6.50;;;;;16.05;66.75;101350.78;146614;594;46020;-73
2022/05/04 06:42:42;;;;;;;;;8.75;8.75;;;;;16.01;68.39;101346.25;146614;642;46014;-80
2022/05/04 06:45:34;;;;;;;;;9.00;7.00;;;;;15.98;68.54;101350.44;146614;604;46010;-79
2022/05/04 06:48:26;;;;;;;;;7.50;6.75;;;;;15.97;68.37;101341.72;146615;674;46017;-78
2022/05/04 06:51:18;;;;;;;;;9.50;7.75;;;;;16.01;69.28;101355.81;146613;564;46020;-71
2022/05/04 06:54:10;;;;;;;;;7.25;6.00;;;;;16.04;68.16;101346.34;146614;694;46016;-73
2022/05/04 06:57:03;;;;;;;;;10.75;8.00;;;;;16.11;68.50;101352.72;146614;569;45022;-70
2022/05/04 06:59:55;;;;;;;;;9.25;7.00;;;;;16.19;68.90;101359.13;146607;677;46037;-71
2022/05/04 07:02:47;;;;;;;;;8.75;7.25;;;;;16.24;68.14;101354.09;146610;599;46021;-70
2022/05/04 07:05:39;;;;;;;;;11.00;10.00;;;;;16.24;68.35;101360.22;146614;721;46012;-70
2022/05/04 07:08:31;;;;;;;;;10.00;9.00;;;;;16.21;68.73;101353.97;146609;575;46020;-70
2022/05/04 07:11:24;;;;;;;;;11.00;9.00;;;;;16.17;68.86;101348.63;146612;574;46016;-69
2022/05/04 07:14:16;;;;;;;;;7.25;6.25;;;;;16.23;67.93;101347.06;146610;641;46020;-70
2022/05/04 07:17:12;;;;;;;;;13.00;9.75;;;;;16.29;67.55;101353.44;146610;601;46033;-70
2022/05/04 07:20:03;;;;;;;;;9.75;9.75;;;;;16.38;68.21;101353.75;146612;687;46010;-70
2022/05/04 07:22:56;;;;;;;;;7.50;6.75;;;;;16.48;67.20;101361.97;146604;710;46016;-71
2022/05/04 07:25:48;;;;;;;;;9.25;9.00;;;;;16.51;66.47;101365.59;146615;687;46021;-70
2022/05/04 07:28:42;;;;;;;;;9.50;9.25;;;;;16.53;66.20;101360.41;146614;565;46012;-70
2022/05/04 07:31:43;;;;;;;;;8.25;6.50;;;;;16.52;66.42;101358.63;146613;651;45023;-72
2022/05/04 07:34:36;;;;;;;;;11.25;8.25;;;;;16.50;66.85;101368.16;146609;611;47012;-70
2022/05/04 07:37:28;;;;;;;;;8.25;7.75;;;;;16.48;66.67;101367.19;146614;662;47010;-71
2022/05/04 07:43:31;;;;;;;;;16.50;13.75;;;;;16.46;65.56;101372.37;146614;636;46010;-71
2022/05/04 07:46:23;;;;;;;;;10.75;8.00;;;;;16.44;65.55;101381.91;146612;602;46012;-70
2022/05/04 07:49:16;;;;;;;;;8.00;7.00;;;;;16.41;67.01;101376.53;146613;602;46031;-70
2022/05/04 07:52:08;;;;;;;;;9.50;9.50;;;;;16.38;66.89;101387.78;146612;575;46012;-69
2022/05/04 07:55:01;;;;;;;;;11.75;11.50;;;;;16.36;68.55;101383.34;146614;565;46010;-68
2022/05/04 07:57:59;;;;;;;;;13.75;11.75;;;;;16.33;67.90;101384.12;146610;565;45017;-69
2022/05/04 08:04:21;;;;;;;;;13.50;12.75;;;;;16.27;68.57;101393.47;146609;578;46017;-70
2022/05/04 08:07:13;;;;;;;;;13.00;12.25;;;;;16.21;68.79;101393.22;146611;587;46018;-71
2022/05/04 08:10:05;;;;;;;;;21.00;20.00;;;;;16.15;68.81;101400.00;146607;644;46015;-70
2022/05/04 08:12:58;;;;;;;;;32.50;29.50;;;;;16.10;69.69;101405.88;146607;658;46021;-70
2022/05/04 08:15:51;;;;;;;;;40.25;32.50;;;;;16.02;69.26;101405.56;146606;574;46012;-70
2022/05/04 08:18:43;;;;;;;;;40.00;34.00;;;;;15.95;69.96;101419.25;146607;594;46020;-70
2022/05/04 08:21:37;;;;;;;;;21.25;20.25;;;;;15.88;70.13;101425.03;146604;571;46016;-70
2022/05/04 08:24:31;;;;;;;;;20.50;18.50;;;;;15.79;70.81;101425.53;146608;564;46010;-70
2022/05/04 08:27:29;;;;;;;;;17.75;16.00;;;;;15.72;71.33;101422.63;146605;575;46016;-70
2022/05/04 08:30:21;;;;;;;;;17.75;17.50;;;;;15.64;71.16;101424.91;146609;572;46010;-69
2022/05/04 08:33:49;;;;;;;;;16.50;15.50;;;;;15.55;70.98;101425.41;146606;648;46024;-70
2022/05/04 08:36:41;;;;;;;;;21.50;19.50;;;;;15.56;72.79;101431.53;146607;630;48010;-71
2022/05/04 08:39:42;;;;;;;;;15.50;13.00;;;;;15.56;71.58;101432.41;146604;610;46016;-68
2022/05/04 08:42:36;;;;;;;;;16.00;14.00;;;;;15.59;71.34;101434.28;146608;589;46030;-68
2022/05/04 08:45:31;;;;;;;;;12.75;12.50;;;;;15.64;71.64;101437.97;146605;598;46016;-70
2022/05/04 08:48:24;;;;;;;;;8.25;7.00;;;;;15.73;70.76;101437.47;146614;587;46021;-72
2022/05/04 08:51:20;;;;;;;;;12.00;12.00;;;;;15.79;69.56;101435.12;146611;577;47014;-69
2022/05/04 08:54:13;;;;;;;;;11.50;10.75;;;;;15.84;69.96;101444.94;146608;677;47010;-70
2022/05/04 08:57:05;;;;;;;;;13.50;11.00;;;;;15.89;69.35;101442.53;146606;616;46016;-70
2022/05/04 08:59:58;;;;;;;;;9.50;9.00;;;;;15.97;70.36;101446.34;146612;644;46020;-71
2022/05/04 09:02:55;;;;;;;;;9.25;9.25;;;;;16.04;69.94;101442.25;146606;574;46034;-68
2022/05/04 09:05:57;;;;;;;;;23.25;18.75;;;;;16.15;69.45;101440.97;146609;580;46010;-70
2022/05/04 09:09:10;;;;;;;;;17.25;16.00;;;;;16.31;68.36;101427.66;146607;639;46016;-70
2022/05/04 09:12:06;;;;;;;;;12.00;11.00;;;;;16.54;68.42;101438.09;146611;570;46010;-68
2022/05/04 09:14:59;;;;;;;;;12.00;12.00;;;;;16.76;68.36;101432.00;146608;593;46914;-68
2022/05/04 09:17:58;;;;;;;;;20.75;18.75;;;;;17.00;67.50;101429.38;146608;628;46020;-71
2022/05/04 09:20:55;;;;;;;;;17.50;11.75;;;;;17.27;65.78;101430.37;146606;607;46016;-70
2022/05/04 09:23:54;;;;;;;;;11.25;11.00;;;;;17.47;65.54;101431.06;146611;695;46015;-71
2022/05/04 09:26:48;;;;;;;;;11.00;10.00;;;;;17.59;65.39;101421.84;146611;635;46016;-70
2022/05/04 09:29:42;;;;;;;;;11.00;10.00;;;;;17.66;64.98;101424.75;146612;639;47020;-70
2022/05/04 09:32:34;;;;;;;;;17.50;13.75;;;;;17.74;63.87;101425.88;146608;643;46014;-70
2022/05/04 09:35:51;;;;;;;;;14.75;12.75;;;;;16.76;64.13;101227.72;146612;643;46010;-68
2022/05/04 09:45:34;;;;;;;;;6.75;5.50;;;;;18.04;62.38;101414.62;146612;586;46016;-70
2022/05/04 09:49:00;;;;;;;;;10.00;10.00;;;;;17.99;62.70;101414.47;146607;617;47010;-69
2022/05/04 09:51:54;;;;;;;;;11.50;9.00;;;;;17.95;62.35;101409.09;146608;608;46912;-69
2022/05/04 09:54:49;;;;;;;;;6.00;4.75;;;;;17.89;62.19;101412.41;146614;580;46021;-69
2022/05/04 09:57:42;;;;;;;;;13.50;12.25;;;;;17.87;62.36;101411.44;146607;616;47012;-69
2022/05/04 10:00:35;;;;;;;;;10.50;9.50;;;;;17.91;62.96;101408.09;146610;649;46010;-70
2022/05/04 10:03:32;;;;;;;;;14.75;12.00;;;;;18.00;62.57;101408.38;146606;660;46016;-69
2022/05/04 10:06:24;;;;;;;;;7.75;6.75;;;;;18.10;62.65;101413.91;146612;575;46020;-69
2022/05/04 10:09:20;;;;;;;;;12.00;10.50;;;;;18.23;61.31;101409.09;146611;569;46014;-69
2022/05/04 10:12:13;;;;;;;;;12.75;11.50;;;;;18.34;60.57;101406.78;146614;580;46020;-70
2022/05/04 10:15:36;;;;;;;;;17.25;14.25;;;;;18.44;62.32;101403.63;146608;685;46012;-68
2022/05/04 10:18:35;;;;;;;;;14.75;13.75;;;;;18.68;60.61;101390.31;146608;606;46020;-70
2022/05/04 10:21:31;;;;;;;;;14.00;12.75;;;;;18.88;58.58;101390.03;146608;600;46012;-70
2022/05/04 10:24:24;;;;;;;;;18.75;16.50;;;;;19.00;62.03;101386.81;146610;578;46021;-70
2022/05/04 10:27:25;;;;;;;;;13.75;11.50;;;;;19.18;60.48;101387.31;146607;581;46035;-71
2022/05/04 10:30:32;;;;;;;;;15.00;14.25;;;;;19.35;59.96;101380.78;146610;599;46020;-68
2022/05/04 10:33:28;;;;;;;;;13.25;12.25;;;;;19.40;60.44;101367.75;146603;685;46915;-70
2022/05/04 10:36:31;;;;;;;;;12.00;11.00;;;;;18.03;60.11;101124.19;146612;619;46010;-69
2022/05/04 10:39:25;;;;;;;;;15.50;12.00;;;;;19.59;58.67;101374.34;146606;586;46017;-70
2022/05/04 10:43:01;;;;;;;;;14.50;13.25;;;;;18.52;60.50;101195.50;146608;575;46020;-70
2022/05/04 10:45:54;;;;;;;;;11.75;9.00;;;;;19.50;60.18;101392.53;146605;626;46013;-70
2022/05/04 10:49:17;;;;;;;;;;;;;;;;;;;;;
2022/05/04 10:52:13;;;;;;;;;12.50;12.00;;;;;19.05;61.37;101401.00;146605;590;46012;-69
2022/05/04 10:55:10;;;;;;;;;14.75;12.00;;;;;18.84;62.26;101396.91;146613;581;46011;-70
2022/05/04 10:58:02;;;;;;;;;12.50;11.50;;;;;18.68;63.06;101402.56;146608;563;46914;-69
2022/05/04 11:01:14;;;;;;;;;11.25;10.50;;;;;18.58;62.39;101397.88;146611;564;46021;-69
2022/05/04 11:04:25;;;;;;;;;9.00;7.75;;;;;18.48;62.17;101391.47;146611;639;46016;-69
2022/05/04 11:07:30;;;;;;;;;12.75;10.75;;;;;18.39;63.75;101388.56;146611;630;46029;-69
2022/05/04 11:10:23;;;;;;;;;11.00;10.75;;;;;18.42;62.80;101400.06;146606;564;46033;-69
2022/05/04 11:13:14;;;;;;;;;9.00;9.00;;;;;18.57;62.39;101380.34;146617;587;46010;-70
2022/05/04 11:16:07;;;;;;;;;12.25;11.00;;;;;18.73;62.37;101376.47;146604;599;46915;-69
2022/05/04 11:19:01;;;;;;;;;10.00;10.00;;;;;18.98;61.68;101371.03;146613;631;46010;-69
2022/05/04 11:21:54;;;;;;;;;19.75;17.50;;;;;19.28;62.37;101367.41;146608;574;46016;-68
2022/05/04 11:24:46;;;;;;;;;11.25;10.25;;;;;19.52;60.34;101370.69;146614;635;45021;-70
2022/05/04 11:27:38;;;;;;;;;12.00;11.25;;;;;18.77;59.62;101221.56;146606;703;46914;-70
2022/05/04 11:30:32;;;;;;;;;11.00;10.50;;;;;19.78;58.18;101365.19;146608;595;47011;-69
2022/05/04 11:33:25;;;;;;;;;11.50;9.50;;;;;19.85;59.05;101361.88;146608;571;46915;-70
2022/05/04 11:36:20;;;;;;;;;11.75;10.75;;;;;19.95;59.44;101361.22;146614;580;45050;-69
2022/05/04 11:39:12;;;;;;;;;10.75;8.75;;;;;20.15;58.81;101353.75;146608;608;46013;-70
2022/05/04 11:42:09;;;;;;;;;10.75;9.75;;;;;20.35;57.88;101355.97;146610;623;46020;-69
2022/05/04 11:45:01;;;;;;;;;8.75;8.75;;;;;20.55;56.32;101359.91;146612;641;47015;-69
2022/05/04 11:47:55;;;;;;;;;12.75;10.75;;;;;20.62;56.04;101353.91;146608;564;46020;-69
2022/05/04 11:50:47;;;;;;;;;12.67;11.00;;;;;20.64;56.24;101349.56;146611;613;46012;-70
2022/05/04 11:53:40;;;;;;;;;11.00;11.00;;;;;20.71;55.54;101347.94;146614;589;46021;-70
2022/05/04 11:56:43;;;;;;;;;9.67;9.33;;;;;20.76;56.81;101343.66;146608;629;46016;-69
2022/05/04 11:59:35;;;;;;;;;8.50;8.00;;;;;20.80;55.27;101337.56;146611;586;46033;-70
2022/05/04 12:02:28;;;;;;;;;11.00;9.75;;;;;20.82;54.44;101333.22;146613;564;46012;-70
2022/05/04 12:05:27;;;;;;;;;11.00;9.00;;;;;20.82;55.92;101329.72;146611;584;46010;-69
2022/05/04 12:08:21;;;;;;;;;8.67;7.67;;;;;20.87;55.97;101328.03;146616;605;45017;-71
2022/05/04 12:11:13;;;;;;;;;9.25;9.25;;;;;20.91;54.98;101320.22;146608;562;46020;-69
2022/05/04 12:14:06;;;;;;;;;9.50;9.50;;;;;20.96;55.72;101326.44;146610;565;46016;-70
2022/05/04 12:16:58;;;;;;;;;10.67;10.00;;;;;21.00;52.72;101311.59;146610;588;46010;-69
2022/05/04 12:20:04;;;;;;;;;8.25;7.25;;;;;21.06;56.09;101314.34;146613;563;46016;-69
2022/05/04 12:22:58;;;;;;;;;9.67;9.67;;;;;21.05;53.44;101309.03;146614;647;46011;-70
2022/05/04 12:25:50;;;;;;;;;11.00;10.67;;;;;21.03;54.12;101313.38;146609;625;47014;-71
2022/05/04 12:28:43;;;;;;;;;8.50;8.25;;;;;20.99;51.63;101307.16;146616;582;45020;-69
2022/05/04 12:34:46;;;;;;;;;9.00;9.00;;;;;20.62;51.49;101306.47;146611;644;46014;-67
2022/05/04 12:37:38;;;;;;;;;7.00;6.33;;;;;20.35;50.75;101301.53;146608;564;46033;-69
2022/05/04 12:40:34;;;;;;;;;3.67;3.33;;;;;20.25;53.42;101300.47;146617;577;46020;-68
2022/05/04 12:43:52;;;;;;;;;7.33;6.00;;;;;20.20;52.72;101298.59;146613;580;46016;-70
2022/05/04 12:46:45;;;;;;;;;6.00;6.00;;;;;20.17;53.17;101299.41;146613;579;46022;-70
2022/05/04 12:49:40;;;;;;;;;9.00;7.00;;;;;20.05;53.06;101304.41;146614;595;46016;-70
2022/05/04 12:52:44;;;;;;;;;6.67;6.33;;;;;20.00;55.47;101299.06;146611;599;46030;-69
2022/05/04 12:58:49;;;;;;;;;6.33;5.33;;;;;20.08;55.48;101301.84;146617;604;46029;-69
2022/05/04 13:01:49;;;;;;;;;5.67;5.67;;;;;20.19;55.13;101295.06;146613;620;46012;-69
2022/05/04 13:04:45;;;;;;;;;8.33;8.33;;;;;20.17;52.53;101291.50;146616;588;46010;-69
2022/05/04 13:07:38;;;;;;;;;5.67;5.67;;;;;20.20;54.28;101296.84;146613;606;46913;-70
2022/05/04 13:10:31;;;;;;;;;6.25;5.75;;;;;20.30;54.69;101293.53;146612;726;46010;-69
2022/05/04 13:13:25;;;;;;;;;6.00;6.00;;;;;20.45;54.55;101292.06;146617;687;46012;-70
2022/05/04 13:16:17;;;;;;;;;9.00;8.67;;;;;20.55;55.31;101286.16;146613;657;46010;-70
2022/05/04 13:19:16;;;;;;;;;7.67;7.00;;;;;20.64;54.68;101282.81;146615;603;46014;-70
2022/05/04 13:22:17;;;;;;;;;7.33;7.33;;;;;20.54;51.58;101287.03;146616;603;47010;-70
2022/05/04 13:25:20;;;;;;;;;5.33;5.33;;;;;20.48;52.08;101273.69;146611;574;46016;-68
2022/05/04 13:28:12;;;;;;;;;6.33;6.00;;;;;20.48;51.31;101281.59;146616;634;46010;-69
2022/05/04 13:31:04;;;;;;;;;5.67;5.33;;;;;20.44;52.69;101269.22;146611;597;46017;-69
2022/05/04 13:33:57;;;;;;;;;5.67;4.67;;;;;20.40;50.99;101270.00;146618;598;46020;-69
2022/05/04 13:36:49;;;;;;;;;3.33;3.00;;;;;20.24;48.01;101267.06;146615;571;45913;-69
2022/05/04 13:39:42;;;;;;;;;5.00;5.00;;;;;20.10;50.39;101252.75;146617;566;46020;-70
2022/05/04 13:42:34;;;;;;;;;6.33;6.00;;;;;20.02;50.65;101257.84;146614;687;46031;-69
2022/05/04 13:45:27;;;;;;;;;4.67;4.33;;;;;19.93;50.95;101260.28;146615;642;45050;-67
2022/05/04 13:48:22;;;;;;;;;5.00;3.00;;;;;19.86;49.21;101257.50;146613;594;46034;-70
2022/05/04 13:54:28;;;;;;;;;4.67;3.67;;;;;19.81;48.59;101252.09;146615;589;46014;-69
2022/05/04 13:57:32;;;;;;;;;4.00;2.67;;;;;19.68;47.94;101250.06;146618;566;46014;-69
2022/05/04 14:00:24;;;;;;;;;4.00;4.00;;;;;19.71;51.02;101247.50;146613;668;46012;-70
2022/05/04 14:03:18;;;;;;;;;8.25;7.50;;;;;19.81;52.82;101242.50;146613;576;46010;-70
2022/05/04 14:06:10;;;;;;;;;8.67;7.00;;;;;19.97;51.92;101240.16;146615;658;46015;-69
2022/05/04 14:09:02;;;;;;;;;5.00;5.00;;;;;20.11;52.16;101245.72;146615;633;46028;-70
2022/05/04 14:11:54;;;;;;;;;8.00;7.00;;;;;20.26;51.23;101246.06;146617;592;46031;-68
2022/05/04 14:15:01;;;;;;;;;3.67;3.67;;;;;20.36;49.23;101248.00;146614;572;46021;-70
2022/05/04 14:17:58;;;;;;;;;5.67;5.00;;;;;20.36;48.93;101260.28;146617;578;46012;-69